sensor_id;sensor_type;location;lat;lon;timestamp;P1;durP1;ratioP1;P2;durP2;ratioP2
27796;SDS011;15177;50.844;4.412;2023-02-27T00:00:58;9.67;;;2.83;;
27796;SDS011;15177;50.844;4.412;2023-02-27T00:03:25;8.57;;;2.33;;
27796;SDS011;15177;50.844;4.412;2023-02-27T00:05:50;10.07;;;2.50;;
27796;SDS011;15177;50.844;4.412;2023-02-27T00:08:16;6.53;;;1.80;;
27796;SDS011;15177;50.844;4.412;2023-02-27T00:10:42;14.17;;;1.83;;
27796;SDS011;15177;50.844;4.412;2023-02-27T00:13:09;8.50;;;2.20;;
27796;SDS011;15177;50.844;4.412;2023-02-27T00:15:34;6.33;;;2.13;;
27796;SDS011;15177;50.844;4.412;2023-02-27T00:18:02;10.43;;;2.30;;
27796;SDS011;15177;50.844;4.412;2023-02-27T00:20:28;6.43;;;2.17;;
27796;SDS011;15177;50.844;4.412;2023-02-27T00:22:54;7.87;;;1.93;;
27796;SDS011;15177;50.844;4.412;2023-02-27T00:25:20;7.27;;;1.93;;
27796;SDS011;15177;50.844;4.412;2023-02-27T00:27:45;7.63;;;1.87;;
27796;SDS011;15177;50.844;4.412;2023-02-27T00:30:12;11.70;;;2.10;;
27796;SDS011;15177;50.844;4.412;2023-02-27T00:32:39;8.40;;;2.43;;
27796;SDS011;15177;50.844;4.412;2023-02-27T00:35:07;8.10;;;2.47;;
27796;SDS011;15177;50.844;4.412;2023-02-27T00:37:34;4.90;;;2.00;;
27796;SDS011;15177;50.844;4.412;2023-02-27T00:40:01;11.33;;;2.90;;
27796;SDS011;15177;50.844;4.412;2023-02-27T00:42:29;7.27;;;2.67;;
27796;SDS011;15177;50.844;4.412;2023-02-27T00:44:56;3.27;;;1.63;;
27796;SDS011;15177;50.844;4.412;2023-02-27T00:47:21;8.77;;;2.20;;
27796;SDS011;15177;50.844;4.412;2023-02-27T00:49:48;11.27;;;1.83;;
27796;SDS011;15177;50.844;4.412;2023-02-27T00:52:15;6.93;;;1.90;;
27796;SDS011;15177;50.844;4.412;2023-02-27T00:54:41;8.90;;;2.00;;
27796;SDS011;15177;50.844;4.412;2023-02-27T00:57:06;3.67;;;1.27;;
27796;SDS011;15177;50.844;4.412;2023-02-27T00:59:32;2.83;;;1.67;;
27796;SDS011;15177;50.844;4.412;2023-02-27T01:01:57;6.63;;;1.83;;
27796;SDS011;15177;50.844;4.412;2023-02-27T01:04:23;6.43;;;1.93;;
27796;SDS011;15177;50.844;4.412;2023-02-27T01:06:50;13.83;;;2.27;;
27796;SDS011;15177;50.844;4.412;2023-02-27T01:09:18;4.33;;;2.27;;
27796;SDS011;15177;50.844;4.412;2023-02-27T01:11:44;8.47;;;2.17;;
27796;SDS011;15177;50.844;4.412;2023-02-27T01:14:10;8.00;;;2.13;;
27796;SDS011;15177;50.844;4.412;2023-02-27T01:16:35;6.40;;;1.90;;
27796;SDS011;15177;50.844;4.412;2023-02-27T01:19:01;7.20;;;2.00;;
27796;SDS011;15177;50.844;4.412;2023-02-27T01:21:28;3.93;;;1.80;;
27796;SDS011;15177;50.844;4.412;2023-02-27T01:23:54;3.87;;;1.47;;
27796;SDS011;15177;50.844;4.412;2023-02-27T01:26:20;7.47;;;1.93;;
27796;SDS011;15177;50.844;4.412;2023-02-27T01:28:45;6.47;;;2.00;;
27796;SDS011;15177;50.844;4.412;2023-02-27T01:31:11;8.00;;;2.00;;
27796;SDS011;15177;50.844;4.412;2023-02-27T01:33:37;6.70;;;1.77;;
27796;SDS011;15177;50.844;4.412;2023-02-27T01:36:03;7.60;;;1.90;;
27796;SDS011;15177;50.844;4.412;2023-02-27T01:38:29;4.40;;;1.70;;
27796;SDS011;15177;50.844;4.412;2023-02-27T01:40:55;6.47;;;1.87;;
27796;SDS011;15177;50.844;4.412;2023-02-27T01:43:22;7.80;;;2.53;;
27796;SDS011;15177;50.844;4.412;2023-02-27T01:45:48;4.70;;;2.10;;
27796;SDS011;15177;50.844;4.412;2023-02-27T01:50:57;7.57;;;2.27;;
27796;SDS011;15177;50.844;4.412;2023-02-27T01:53:30;14.17;;;2.70;;
27796;SDS011;15177;50.844;4.412;2023-02-27T01:56:07;4.00;;;1.73;;
27796;SDS011;15177;50.844;4.412;2023-02-27T01:58:36;3.00;;;1.77;;
27796;SDS011;15177;50.844;4.412;2023-02-27T02:01:02;3.10;;;1.73;;
27796;SDS011;15177;50.844;4.412;2023-02-27T02:06:07;9.70;;;2.50;;
27796;SDS011;15177;50.844;4.412;2023-02-27T02:08:36;7.73;;;2.47;;
27796;SDS011;15177;50.844;4.412;2023-02-27T02:11:07;4.03;;;1.80;;
27796;SDS011;15177;50.844;4.412;2023-02-27T02:13:33;10.50;;;1.87;;
27796;SDS011;15177;50.844;4.412;2023-02-27T02:18:47;3.40;;;1.60;;
27796;SDS011;15177;50.844;4.412;2023-02-27T02:32:38;7.97;;;2.53;;
27796;SDS011;15177;50.844;4.412;2023-02-27T02:35:34;6.27;;;1.90;;
27796;SDS011;15177;50.844;4.412;2023-02-27T02:43:55;6.43;;;2.03;;
27796;SDS011;15177;50.844;4.412;2023-02-27T02:46:44;6.37;;;2.17;;
27796;SDS011;15177;50.844;4.412;2023-02-27T02:52:05;4.67;;;2.00;;
27796;SDS011;15177;50.844;4.412;2023-02-27T02:54:53;6.90;;;2.37;;
27796;SDS011;15177;50.844;4.412;2023-02-27T02:57:42;10.33;;;2.20;;
27796;SDS011;15177;50.844;4.412;2023-02-27T03:00:14;5.70;;;1.90;;
27796;SDS011;15177;50.844;4.412;2023-02-27T03:02:48;9.40;;;1.97;;
27796;SDS011;15177;50.844;4.412;2023-02-27T03:05:25;9.53;;;2.43;;
27796;SDS011;15177;50.844;4.412;2023-02-27T03:08:02;8.87;;;2.17;;
27796;SDS011;15177;50.844;4.412;2023-02-27T03:10:41;6.80;;;2.03;;
27796;SDS011;15177;50.844;4.412;2023-02-27T03:13:13;8.37;;;2.57;;
27796;SDS011;15177;50.844;4.412;2023-02-27T03:15:57;9.33;;;2.47;;
27796;SDS011;15177;50.844;4.412;2023-02-27T03:18:34;4.67;;;2.40;;
27796;SDS011;15177;50.844;4.412;2023-02-27T03:21:06;9.57;;;2.37;;
27796;SDS011;15177;50.844;4.412;2023-02-27T03:23:39;6.73;;;2.30;;
27796;SDS011;15177;50.844;4.412;2023-02-27T03:26:08;9.00;;;2.90;;
27796;SDS011;15177;50.844;4.412;2023-02-27T03:28:40;11.13;;;3.47;;
27796;SDS011;15177;50.844;4.412;2023-02-27T03:31:44;8.47;;;2.37;;
27796;SDS011;15177;50.844;4.412;2023-02-27T03:34:18;8.37;;;2.47;;
27796;SDS011;15177;50.844;4.412;2023-02-27T03:37:03;11.47;;;3.00;;
27796;SDS011;15177;50.844;4.412;2023-02-27T03:39:54;8.80;;;2.13;;
27796;SDS011;15177;50.844;4.412;2023-02-27T03:42:49;7.37;;;2.30;;
27796;SDS011;15177;50.844;4.412;2023-02-27T03:45:23;4.73;;;2.13;;
27796;SDS011;15177;50.844;4.412;2023-02-27T03:47:52;9.97;;;2.73;;
27796;SDS011;15177;50.844;4.412;2023-02-27T03:50:18;7.00;;;2.47;;
27796;SDS011;15177;50.844;4.412;2023-02-27T03:52:45;12.03;;;2.67;;
27796;SDS011;15177;50.844;4.412;2023-02-27T03:57:42;6.93;;;2.60;;
27796;SDS011;15177;50.844;4.412;2023-02-27T04:00:11;10.37;;;2.60;;
27796;SDS011;15177;50.844;4.412;2023-02-27T04:02:41;4.53;;;2.30;;
27796;SDS011;15177;50.844;4.412;2023-02-27T04:05:09;9.63;;;2.33;;
27796;SDS011;15177;50.844;4.412;2023-02-27T04:29:57;11.50;;;3.00;;
27796;SDS011;15177;50.844;4.412;2023-02-27T04:32:46;7.77;;;2.50;;
27796;SDS011;15177;50.844;4.412;2023-02-27T04:35:21;6.20;;;2.33;;
27796;SDS011;15177;50.844;4.412;2023-02-27T04:38:17;6.23;;;2.63;;
27796;SDS011;15177;50.844;4.412;2023-02-27T04:43:54;7.07;;;2.50;;
27796;SDS011;15177;50.844;4.412;2023-02-27T04:46:23;17.30;;;2.60;;
27796;SDS011;15177;50.844;4.412;2023-02-27T04:51:44;4.33;;;2.40;;
27796;SDS011;15177;50.844;4.412;2023-02-27T04:54:26;6.27;;;2.80;;
27796;SDS011;15177;50.844;4.412;2023-02-27T04:57:00;11.30;;;2.73;;
27796;SDS011;15177;50.844;4.412;2023-02-27T04:59:33;6.70;;;2.77;;
27796;SDS011;15177;50.844;4.412;2023-02-27T05:02:07;7.80;;;2.90;;
27796;SDS011;15177;50.844;4.412;2023-02-27T05:04:57;7.37;;;2.77;;
27796;SDS011;15177;50.844;4.412;2023-02-27T05:07:27;9.60;;;2.67;;
27796;SDS011;15177;50.844;4.412;2023-02-27T05:10:09;13.50;;;3.10;;
27796;SDS011;15177;50.844;4.412;2023-02-27T05:13:05;11.20;;;2.90;;
27796;SDS011;15177;50.844;4.412;2023-02-27T05:15:42;4.27;;;2.20;;
27796;SDS011;15177;50.844;4.412;2023-02-27T05:18:14;10.83;;;3.30;;
27796;SDS011;15177;50.844;4.412;2023-02-27T05:20:55;9.70;;;2.87;;
27796;SDS011;15177;50.844;4.412;2023-02-27T05:26:26;6.00;;;2.80;;
27796;SDS011;15177;50.844;4.412;2023-02-27T05:29:10;7.30;;;3.13;;
27796;SDS011;15177;50.844;4.412;2023-02-27T05:32:06;9.40;;;2.93;;
27796;SDS011;15177;50.844;4.412;2023-02-27T05:34:56;14.10;;;3.50;;
27796;SDS011;15177;50.844;4.412;2023-02-27T05:40:03;10.37;;;3.17;;
27796;SDS011;15177;50.844;4.412;2023-02-27T05:43:19;6.53;;;2.93;;
27796;SDS011;15177;50.844;4.412;2023-02-27T05:45:27;21.43;;;4.27;;
27796;SDS011;15177;50.844;4.412;2023-02-27T05:47:57;13.20;;;3.67;;
27796;SDS011;15177;50.844;4.412;2023-02-27T05:50:27;7.90;;;3.10;;
27796;SDS011;15177;50.844;4.412;2023-02-27T05:52:57;7.73;;;3.53;;
27796;SDS011;15177;50.844;4.412;2023-02-27T05:55:37;10.27;;;3.57;;
27796;SDS011;15177;50.844;4.412;2023-02-27T05:58:15;6.23;;;2.90;;
27796;SDS011;15177;50.844;4.412;2023-02-27T06:00:58;5.53;;;2.80;;
27796;SDS011;15177;50.844;4.412;2023-02-27T06:03:26;7.23;;;3.13;;
27796;SDS011;15177;50.844;4.412;2023-02-27T06:05:54;9.50;;;3.50;;
27796;SDS011;15177;50.844;4.412;2023-02-27T06:08:24;5.80;;;3.00;;
27796;SDS011;15177;50.844;4.412;2023-02-27T06:10:51;7.20;;;3.23;;
27796;SDS011;15177;50.844;4.412;2023-02-27T06:13:17;11.93;;;3.30;;
27796;SDS011;15177;50.844;4.412;2023-02-27T06:15:43;13.37;;;4.00;;
27796;SDS011;15177;50.844;4.412;2023-02-27T06:18:11;8.07;;;3.40;;
27796;SDS011;15177;50.844;4.412;2023-02-27T06:20:38;10.27;;;3.73;;
27796;SDS011;15177;50.844;4.412;2023-02-27T06:23:06;15.33;;;4.30;;
27796;SDS011;15177;50.844;4.412;2023-02-27T06:25:32;8.53;;;3.70;;
27796;SDS011;15177;50.844;4.412;2023-02-27T06:27:58;10.57;;;3.20;;
27796;SDS011;15177;50.844;4.412;2023-02-27T06:30:26;8.60;;;3.80;;
27796;SDS011;15177;50.844;4.412;2023-02-27T06:32:52;17.80;;;4.37;;
27796;SDS011;15177;50.844;4.412;2023-02-27T06:35:20;11.33;;;4.10;;
27796;SDS011;15177;50.844;4.412;2023-02-27T06:37:46;5.60;;;3.23;;
27796;SDS011;15177;50.844;4.412;2023-02-27T06:40:13;19.27;;;3.57;;
27796;SDS011;15177;50.844;4.412;2023-02-27T06:42:40;8.93;;;3.63;;
27796;SDS011;15177;50.844;4.412;2023-02-27T06:45:07;13.83;;;3.70;;
27796;SDS011;15177;50.844;4.412;2023-02-27T06:47:35;10.10;;;4.07;;
27796;SDS011;15177;50.844;4.412;2023-02-27T06:50:01;6.50;;;3.33;;
27796;SDS011;15177;50.844;4.412;2023-02-27T06:52:27;12.20;;;3.80;;
27796;SDS011;15177;50.844;4.412;2023-02-27T06:54:54;7.57;;;3.57;;
27796;SDS011;15177;50.844;4.412;2023-02-27T06:57:20;12.23;;;3.70;;
27796;SDS011;15177;50.844;4.412;2023-02-27T06:59:48;11.57;;;3.77;;
27796;SDS011;15177;50.844;4.412;2023-02-27T07:02:14;11.57;;;4.37;;
27796;SDS011;15177;50.844;4.412;2023-02-27T07:04:41;7.30;;;3.63;;
27796;SDS011;15177;50.844;4.412;2023-02-27T07:07:09;8.43;;;3.63;;
27796;SDS011;15177;50.844;4.412;2023-02-27T07:09:35;16.03;;;4.80;;
27796;SDS011;15177;50.844;4.412;2023-02-27T07:12:02;15.03;;;4.30;;
27796;SDS011;15177;50.844;4.412;2023-02-27T07:14:28;8.53;;;3.83;;
27796;SDS011;15177;50.844;4.412;2023-02-27T07:16:57;14.93;;;3.93;;
27796;SDS011;15177;50.844;4.412;2023-02-27T07:19:28;12.10;;;4.37;;
27796;SDS011;15177;50.844;4.412;2023-02-27T07:21:57;11.60;;;4.20;;
27796;SDS011;15177;50.844;4.412;2023-02-27T07:24:23;10.83;;;4.37;;
27796;SDS011;15177;50.844;4.412;2023-02-27T07:26:50;10.93;;;4.57;;
27796;SDS011;15177;50.844;4.412;2023-02-27T07:29:26;8.07;;;3.80;;
27796;SDS011;15177;50.844;4.412;2023-02-27T07:31:56;9.73;;;4.00;;
27796;SDS011;15177;50.844;4.412;2023-02-27T07:34:23;8.83;;;3.93;;
27796;SDS011;15177;50.844;4.412;2023-02-27T07:36:48;8.43;;;3.10;;
27796;SDS011;15177;50.844;4.412;2023-02-27T07:39:18;6.63;;;3.20;;
27796;SDS011;15177;50.844;4.412;2023-02-27T07:41:44;7.13;;;3.17;;
27796;SDS011;15177;50.844;4.412;2023-02-27T07:44:13;13.53;;;3.50;;
27796;SDS011;15177;50.844;4.412;2023-02-27T07:46:42;10.80;;;3.97;;
27796;SDS011;15177;50.844;4.412;2023-02-27T07:49:08;11.43;;;3.57;;
27796;SDS011;15177;50.844;4.412;2023-02-27T07:51:34;8.17;;;3.17;;
27796;SDS011;15177;50.844;4.412;2023-02-27T07:54:01;11.47;;;4.00;;
27796;SDS011;15177;50.844;4.412;2023-02-27T07:56:29;8.17;;;3.17;;
27796;SDS011;15177;50.844;4.412;2023-02-27T07:59:23;8.00;;;3.43;;
27796;SDS011;15177;50.844;4.412;2023-02-27T08:01:50;7.67;;;3.23;;
27796;SDS011;15177;50.844;4.412;2023-02-27T08:04:16;8.90;;;3.50;;
27796;SDS011;15177;50.844;4.412;2023-02-27T08:06:42;13.90;;;5.07;;
27796;SDS011;15177;50.844;4.412;2023-02-27T08:09:08;11.67;;;4.53;;
27796;SDS011;15177;50.844;4.412;2023-02-27T08:11:34;10.20;;;4.03;;
27796;SDS011;15177;50.844;4.412;2023-02-27T08:14:00;8.33;;;3.80;;
27796;SDS011;15177;50.844;4.412;2023-02-27T08:16:29;9.37;;;3.93;;
27796;SDS011;15177;50.844;4.412;2023-02-27T08:19:04;7.47;;;3.77;;
27796;SDS011;15177;50.844;4.412;2023-02-27T08:21:33;7.90;;;3.77;;
27796;SDS011;15177;50.844;4.412;2023-02-27T08:24:26;9.67;;;4.50;;
27796;SDS011;15177;50.844;4.412;2023-02-27T08:26:52;9.50;;;3.40;;
27796;SDS011;15177;50.844;4.412;2023-02-27T08:29:18;11.13;;;4.27;;
27796;SDS011;15177;50.844;4.412;2023-02-27T08:31:44;7.83;;;4.03;;
27796;SDS011;15177;50.844;4.412;2023-02-27T08:34:11;8.60;;;3.60;;
27796;SDS011;15177;50.844;4.412;2023-02-27T08:36:38;12.10;;;4.40;;
27796;SDS011;15177;50.844;4.412;2023-02-27T08:39:04;11.77;;;3.67;;
27796;SDS011;15177;50.844;4.412;2023-02-27T08:41:31;7.70;;;3.53;;
27796;SDS011;15177;50.844;4.412;2023-02-27T08:43:57;7.73;;;3.67;;
27796;SDS011;15177;50.844;4.412;2023-02-27T08:46:23;8.90;;;4.10;;
27796;SDS011;15177;50.844;4.412;2023-02-27T08:48:48;7.77;;;3.90;;
27796;SDS011;15177;50.844;4.412;2023-02-27T08:51:14;10.10;;;3.93;;
27796;SDS011;15177;50.844;4.412;2023-02-27T08:53:40;7.47;;;3.67;;
27796;SDS011;15177;50.844;4.412;2023-02-27T08:56:05;8.25;;;4.03;;
27796;SDS011;15177;50.844;4.412;2023-02-27T08:58:31;6.45;;;4.18;;
27796;SDS011;15177;50.844;4.412;2023-02-27T09:00:57;8.05;;;3.53;;
27796;SDS011;15177;50.844;4.412;2023-02-27T09:03:23;8.80;;;3.60;;
27796;SDS011;15177;50.844;4.412;2023-02-27T09:05:52;6.97;;;3.57;;
27796;SDS011;15177;50.844;4.412;2023-02-27T09:08:19;8.37;;;3.67;;
27796;SDS011;15177;50.844;4.412;2023-02-27T09:10:45;5.70;;;3.70;;
27796;SDS011;15177;50.844;4.412;2023-02-27T09:13:11;13.20;;;3.90;;
27796;SDS011;15177;50.844;4.412;2023-02-27T09:15:37;8.10;;;3.97;;
27796;SDS011;15177;50.844;4.412;2023-02-27T09:18:03;8.70;;;3.67;;
27796;SDS011;15177;50.844;4.412;2023-02-27T09:20:34;7.90;;;3.23;;
27796;SDS011;15177;50.844;4.412;2023-02-27T09:23:01;8.83;;;3.27;;
27796;SDS011;15177;50.844;4.412;2023-02-27T09:25:30;5.03;;;2.92;;
27796;SDS011;15177;50.844;4.412;2023-02-27T09:27:57;12.43;;;3.85;;
27796;SDS011;15177;50.844;4.412;2023-02-27T09:30:25;8.87;;;3.80;;
27796;SDS011;15177;50.844;4.412;2023-02-27T09:32:52;7.88;;;4.13;;
27796;SDS011;15177;50.844;4.412;2023-02-27T09:35:18;7.07;;;3.40;;
27796;SDS011;15177;50.844;4.412;2023-02-27T09:37:46;9.00;;;4.22;;
27796;SDS011;15177;50.844;4.412;2023-02-27T09:42:50;8.20;;;3.55;;
27796;SDS011;15177;50.844;4.412;2023-02-27T09:45:31;7.55;;;3.08;;
27796;SDS011;15177;50.844;4.412;2023-02-27T09:50:46;7.97;;;2.60;;
27796;SDS011;15177;50.844;4.412;2023-02-27T09:53:24;9.10;;;3.00;;
27796;SDS011;15177;50.844;4.412;2023-02-27T09:58:52;3.88;;;2.50;;
27796;SDS011;15177;50.844;4.412;2023-02-27T10:01:24;4.10;;;2.23;;
27796;SDS011;15177;50.844;4.412;2023-02-27T10:06:25;5.47;;;2.13;;
27796;SDS011;15177;50.844;4.412;2023-02-27T10:17:20;6.55;;;2.60;;
27796;SDS011;15177;50.844;4.412;2023-02-27T10:19:50;5.88;;;2.30;;
27796;SDS011;15177;50.844;4.412;2023-02-27T10:22:19;7.07;;;2.50;;
27796;SDS011;15177;50.844;4.412;2023-02-27T10:24:52;7.43;;;2.78;;
27796;SDS011;15177;50.844;4.412;2023-02-27T10:27:28;5.82;;;1.98;;
27796;SDS011;15177;50.844;4.412;2023-02-27T10:29:56;5.27;;;2.37;;
27796;SDS011;15177;50.844;4.412;2023-02-27T10:32:34;5.38;;;2.15;;
27796;SDS011;15177;50.844;4.412;2023-02-27T10:35:06;5.47;;;2.80;;
27796;SDS011;15177;50.844;4.412;2023-02-27T10:37:37;6.30;;;2.70;;
27796;SDS011;15177;50.844;4.412;2023-02-27T10:40:14;5.93;;;2.45;;
27796;SDS011;15177;50.844;4.412;2023-02-27T10:42:41;8.67;;;2.80;;
27796;SDS011;15177;50.844;4.412;2023-02-27T10:45:15;6.67;;;3.57;;
27796;SDS011;15177;50.844;4.412;2023-02-27T10:47:41;7.57;;;2.43;;
27796;SDS011;15177;50.844;4.412;2023-02-27T10:50:30;12.70;;;2.33;;
27796;SDS011;15177;50.844;4.412;2023-02-27T10:52:59;3.70;;;2.07;;
27796;SDS011;15177;50.844;4.412;2023-02-27T10:55:35;3.27;;;2.03;;
27796;SDS011;15177;50.844;4.412;2023-02-27T10:58:04;5.97;;;2.40;;
27796;SDS011;15177;50.844;4.412;2023-02-27T11:00:42;3.20;;;1.57;;
27796;SDS011;15177;50.844;4.412;2023-02-27T11:03:21;3.03;;;1.90;;
27796;SDS011;15177;50.844;4.412;2023-02-27T11:05:55;5.17;;;2.00;;
27796;SDS011;15177;50.844;4.412;2023-02-27T11:08:33;3.50;;;1.93;;
27796;SDS011;15177;50.844;4.412;2023-02-27T11:13:52;7.17;;;2.70;;
27796;SDS011;15177;50.844;4.412;2023-02-27T11:16:19;5.03;;;2.70;;
27796;SDS011;15177;50.844;4.412;2023-02-27T11:18:47;4.33;;;2.20;;
27796;SDS011;15177;50.844;4.412;2023-02-27T11:23:53;3.60;;;2.23;;
27796;SDS011;15177;50.844;4.412;2023-02-27T11:31:43;5.83;;;2.23;;
27796;SDS011;15177;50.844;4.412;2023-02-27T11:34:22;5.73;;;2.30;;
27796;SDS011;15177;50.844;4.412;2023-02-27T11:39:55;7.73;;;2.83;;
27796;SDS011;15177;50.844;4.412;2023-02-27T11:42:25;5.27;;;2.90;;
27796;SDS011;15177;50.844;4.412;2023-02-27T11:45:02;7.67;;;2.90;;
27796;SDS011;15177;50.844;4.412;2023-02-27T11:47:36;6.87;;;3.03;;
27796;SDS011;15177;50.844;4.412;2023-02-27T11:55:53;8.20;;;2.80;;
27796;SDS011;15177;50.844;4.412;2023-02-27T11:58:24;7.20;;;2.97;;
27796;SDS011;15177;50.844;4.412;2023-02-27T12:00:55;7.87;;;2.73;;
27796;SDS011;15177;50.844;4.412;2023-02-27T12:03:46;6.07;;;2.83;;
27796;SDS011;15177;50.844;4.412;2023-02-27T12:12:21;5.70;;;2.20;;
27796;SDS011;15177;50.844;4.412;2023-02-27T12:17:34;4.90;;;2.07;;
27796;SDS011;15177;50.844;4.412;2023-02-27T12:20:17;7.83;;;2.20;;
27796;SDS011;15177;50.844;4.412;2023-02-27T12:22:47;3.83;;;2.20;;
27796;SDS011;15177;50.844;4.412;2023-02-27T12:28:11;5.67;;;2.83;;
27796;SDS011;15177;50.844;4.412;2023-02-27T12:31:20;5.43;;;2.20;;
27796;SDS011;15177;50.844;4.412;2023-02-27T12:36:50;5.83;;;1.97;;
27796;SDS011;15177;50.844;4.412;2023-02-27T12:39:18;6.27;;;2.20;;
27796;SDS011;15177;50.844;4.412;2023-02-27T12:50:41;12.33;;;2.50;;
27796;SDS011;15177;50.844;4.412;2023-02-27T12:56:21;7.87;;;1.97;;
27796;SDS011;15177;50.844;4.412;2023-02-27T13:01:55;6.83;;;2.27;;
27796;SDS011;15177;50.844;4.412;2023-02-27T13:04:46;3.03;;;1.40;;
27796;SDS011;15177;50.844;4.412;2023-02-27T13:07:27;5.53;;;2.17;;
27796;SDS011;15177;50.844;4.412;2023-02-27T13:09:57;5.57;;;1.90;;
27796;SDS011;15177;50.844;4.412;2023-02-27T13:15:16;3.83;;;1.90;;
27796;SDS011;15177;50.844;4.412;2023-02-27T13:17:48;3.60;;;1.90;;
27796;SDS011;15177;50.844;4.412;2023-02-27T13:23:54;3.30;;;1.40;;
27796;SDS011;15177;50.844;4.412;2023-02-27T13:26:06;3.70;;;1.90;;
27796;SDS011;15177;50.844;4.412;2023-02-27T13:28:40;3.23;;;1.60;;
27796;SDS011;15177;50.844;4.412;2023-02-27T13:31:18;4.27;;;2.23;;
27796;SDS011;15177;50.844;4.412;2023-02-27T13:34:16;3.17;;;1.43;;
27796;SDS011;15177;50.844;4.412;2023-02-27T13:36:44;5.70;;;1.87;;
27796;SDS011;15177;50.844;4.412;2023-02-27T13:44:51;5.60;;;1.93;;
27796;SDS011;15177;50.844;4.412;2023-02-27T13:49:59;18.30;;;2.33;;
27796;SDS011;15177;50.844;4.412;2023-02-27T13:52:35;3.33;;;1.87;;
27796;SDS011;15177;50.844;4.412;2023-02-27T13:55:05;6.07;;;1.90;;
27796;SDS011;15177;50.844;4.412;2023-02-27T13:57:48;7.57;;;1.93;;
27796;SDS011;15177;50.844;4.412;2023-02-27T14:00:19;4.87;;;1.80;;
27796;SDS011;15177;50.844;4.412;2023-02-27T14:05:34;5.20;;;1.90;;
27796;SDS011;15177;50.844;4.412;2023-02-27T14:08:05;4.87;;;1.90;;
27796;SDS011;15177;50.844;4.412;2023-02-27T14:10:40;6.63;;;1.90;;
27796;SDS011;15177;50.844;4.412;2023-02-27T14:24:17;7.87;;;1.57;;
27796;SDS011;15177;50.844;4.412;2023-02-27T14:26:46;3.10;;;1.77;;
27796;SDS011;15177;50.844;4.412;2023-02-27T14:29:16;5.47;;;1.60;;
27796;SDS011;15177;50.844;4.412;2023-02-27T14:31:45;2.40;;;1.73;;
27796;SDS011;15177;50.844;4.412;2023-02-27T14:34:12;3.53;;;1.60;;
27796;SDS011;15177;50.844;4.412;2023-02-27T14:36:43;6.93;;;1.40;;
27796;SDS011;15177;50.844;4.412;2023-02-27T14:39:31;6.43;;;2.03;;
27796;SDS011;15177;50.844;4.412;2023-02-27T14:42:02;4.77;;;1.70;;
27796;SDS011;15177;50.844;4.412;2023-02-27T14:44:40;6.13;;;1.80;;
27796;SDS011;15177;50.844;4.412;2023-02-27T14:47:50;6.87;;;2.13;;
27796;SDS011;15177;50.844;4.412;2023-02-27T14:50:02;3.07;;;1.53;;
27796;SDS011;15177;50.844;4.412;2023-02-27T14:52:31;4.23;;;2.17;;
27796;SDS011;15177;50.844;4.412;2023-02-27T14:55:19;6.40;;;1.63;;
27796;SDS011;15177;50.844;4.412;2023-02-27T15:00:45;3.50;;;1.87;;
27796;SDS011;15177;50.844;4.412;2023-02-27T15:03:24;5.63;;;1.90;;
27796;SDS011;15177;50.844;4.412;2023-02-27T15:05:54;5.30;;;1.80;;
27796;SDS011;15177;50.844;4.412;2023-02-27T15:08:28;6.57;;;1.73;;
27796;SDS011;15177;50.844;4.412;2023-02-27T15:11:03;4.87;;;1.97;;
27796;SDS011;15177;50.844;4.412;2023-02-27T15:13:34;5.33;;;1.70;;
27796;SDS011;15177;50.844;4.412;2023-02-27T15:18:55;4.00;;;1.67;;
27796;SDS011;15177;50.844;4.412;2023-02-27T15:21:23;7.77;;;2.00;;
27796;SDS011;15177;50.844;4.412;2023-02-27T15:23:55;4.63;;;1.50;;
27796;SDS011;15177;50.844;4.412;2023-02-27T15:26:30;8.97;;;1.97;;
27796;SDS011;15177;50.844;4.412;2023-02-27T15:28:59;10.90;;;1.97;;
27796;SDS011;15177;50.844;4.412;2023-02-27T15:31:27;8.77;;;2.00;;
27796;SDS011;15177;50.844;4.412;2023-02-27T15:33:56;3.47;;;1.60;;
27796;SDS011;15177;50.844;4.412;2023-02-27T15:36:26;5.63;;;1.80;;
27796;SDS011;15177;50.844;4.412;2023-02-27T15:41:46;3.37;;;1.40;;
27796;SDS011;15177;50.844;4.412;2023-02-27T15:44:25;6.93;;;1.90;;
27796;SDS011;15177;50.844;4.412;2023-02-27T15:46:54;9.93;;;1.93;;
27796;SDS011;15177;50.844;4.412;2023-02-27T15:49:21;5.40;;;1.50;;
27796;SDS011;15177;50.844;4.412;2023-02-27T15:51:56;7.53;;;1.83;;
27796;SDS011;15177;50.844;4.412;2023-02-27T15:54:25;6.57;;;1.87;;
27796;SDS011;15177;50.844;4.412;2023-02-27T15:56:55;4.73;;;2.20;;
27796;SDS011;15177;50.844;4.412;2023-02-27T15:59:22;4.83;;;1.77;;
27796;SDS011;15177;50.844;4.412;2023-02-27T16:01:49;7.07;;;1.73;;
27796;SDS011;15177;50.844;4.412;2023-02-27T16:04:23;7.13;;;2.33;;
27796;SDS011;15177;50.844;4.412;2023-02-27T16:06:52;6.57;;;2.10;;
27796;SDS011;15177;50.844;4.412;2023-02-27T16:09:33;3.13;;;1.93;;
27796;SDS011;15177;50.844;4.412;2023-02-27T16:14:46;7.60;;;2.10;;
27796;SDS011;15177;50.844;4.412;2023-02-27T16:19:55;4.23;;;1.70;;
27796;SDS011;15177;50.844;4.412;2023-02-27T16:22:23;3.73;;;1.93;;
27796;SDS011;15177;50.844;4.412;2023-02-27T16:24:50;4.33;;;1.97;;
27796;SDS011;15177;50.844;4.412;2023-02-27T16:27:26;10.67;;;2.60;;
27796;SDS011;15177;50.844;4.412;2023-02-27T16:29:54;3.03;;;1.80;;
27796;SDS011;15177;50.844;4.412;2023-02-27T16:32:35;5.90;;;1.93;;
27796;SDS011;15177;50.844;4.412;2023-02-27T16:35:05;7.80;;;2.23;;
27796;SDS011;15177;50.844;4.412;2023-02-27T16:37:45;5.97;;;1.90;;
27796;SDS011;15177;50.844;4.412;2023-02-27T16:40:16;4.07;;;2.30;;
27796;SDS011;15177;50.844;4.412;2023-02-27T16:42:46;3.63;;;1.80;;
27796;SDS011;15177;50.844;4.412;2023-02-27T16:45:19;5.30;;;2.30;;
27796;SDS011;15177;50.844;4.412;2023-02-27T16:47:50;5.40;;;2.10;;
27796;SDS011;15177;50.844;4.412;2023-02-27T16:50:32;6.83;;;2.10;;
27796;SDS011;15177;50.844;4.412;2023-02-27T16:53:07;5.50;;;2.00;;
27796;SDS011;15177;50.844;4.412;2023-02-27T16:55:33;6.07;;;2.10;;
27796;SDS011;15177;50.844;4.412;2023-02-27T16:58:03;4.00;;;1.97;;
27796;SDS011;15177;50.844;4.412;2023-02-27T17:00:30;4.20;;;2.10;;
27796;SDS011;15177;50.844;4.412;2023-02-27T17:02:58;6.47;;;2.37;;
27796;SDS011;15177;50.844;4.412;2023-02-27T17:05:24;3.83;;;1.80;;
27796;SDS011;15177;50.844;4.412;2023-02-27T17:07:50;7.07;;;2.10;;
27796;SDS011;15177;50.844;4.412;2023-02-27T17:10:17;3.03;;;1.97;;
27796;SDS011;15177;50.844;4.412;2023-02-27T17:12:46;5.07;;;2.07;;
27796;SDS011;15177;50.844;4.412;2023-02-27T17:15:12;6.30;;;1.97;;
27796;SDS011;15177;50.844;4.412;2023-02-27T17:17:38;6.00;;;2.10;;
27796;SDS011;15177;50.844;4.412;2023-02-27T17:20:04;9.47;;;2.60;;
27796;SDS011;15177;50.844;4.412;2023-02-27T17:22:33;4.03;;;2.00;;
27796;SDS011;15177;50.844;4.412;2023-02-27T17:25:00;8.47;;;2.80;;
27796;SDS011;15177;50.844;4.412;2023-02-27T17:27:26;6.17;;;2.27;;
27796;SDS011;15177;50.844;4.412;2023-02-27T17:29:52;5.20;;;2.10;;
27796;SDS011;15177;50.844;4.412;2023-02-27T17:32:17;5.37;;;2.40;;
27796;SDS011;15177;50.844;4.412;2023-02-27T17:34:43;9.13;;;3.37;;
27796;SDS011;15177;50.844;4.412;2023-02-27T17:37:08;7.00;;;3.10;;
27796;SDS011;15177;50.844;4.412;2023-02-27T17:39:36;4.80;;;3.20;;
27796;SDS011;15177;50.844;4.412;2023-02-27T17:42:02;6.93;;;2.80;;
27796;SDS011;15177;50.844;4.412;2023-02-27T17:44:28;6.90;;;2.73;;
27796;SDS011;15177;50.844;4.412;2023-02-27T17:46:54;6.17;;;2.70;;
27796;SDS011;15177;50.844;4.412;2023-02-27T17:49:19;5.90;;;3.40;;
27796;SDS011;15177;50.844;4.412;2023-02-27T17:51:45;8.13;;;3.23;;
27796;SDS011;15177;50.844;4.412;2023-02-27T17:54:12;10.63;;;3.63;;
27796;SDS011;15177;50.844;4.412;2023-02-27T17:56:39;8.50;;;4.20;;
27796;SDS011;15177;50.844;4.412;2023-02-27T17:59:04;9.53;;;3.30;;
27796;SDS011;15177;50.844;4.412;2023-02-27T18:01:32;5.87;;;3.20;;
27796;SDS011;15177;50.844;4.412;2023-02-27T18:04:03;9.63;;;3.10;;